Birmingham, United Kingdom

6:31 PM BST on March 29, 2015 (GMT +0100)
I90579489 | | Change Station
CLOSE
Current Station
Personal Weather Station
Location: Solihull, West Midlands
Elevation: 394 ft
Nearby Weather Stations

Elev 394 ft 52.41 °N, 1.76 °W | Updated 18 seconds ago

Overcast
Overcast
46.0 °F
Feels Like 44 °F
N
4.5
Wind Variable Wind from WNW
Gusts 5.8 mph

Today
High -- | Low -- °F
--% Chance of Precip.
Yesterday
High -- | Low -- °F
Precip. -- in
6:49 AM 7:35 PM
Waxing Gibbous, 73% visible
Pressure 29.42 in
Visibility 6.2 miles
Clouds Few 1400 ft
Mostly Cloudy 2500 ft
Windchill 44 °F
Dew Point 39 °F
Humidity 76%
Rainfall 0.17 in
Snow Depth Not available.
UV 0 out of 12
Pollen Not available.
Air Quality Not available.
Flu Activity Not available.
METAR EGBB 291720Z 28015G26KT 240V310 9999 5000NE -SHRA FEW014 BKN025CB 09/05 Q0996 RESHRA

More Conditions Fewer Conditions

Pressure 29.42 in
Visibility 6.2 miles
Clouds Few 1400 ft
Mostly Cloudy 2500 ft
Windchill 44 °F
Dew Point 39 °F
Humidity 76%
Rainfall 0.17 in
Snow Depth Not available.
UV 0 out of 12
Pollen Not available.
Air Quality Not available.
Flu Activity Not available.
METAR EGBB 291720Z 28015G26KT 240V310 9999 5000NE -SHRA FEW014 BKN025CB 09/05 Q0996 RESHRA

More Conditions Fewer Conditions

10-Day Weather Forecast

Almanac

Astronomy

Mar. 29, 2015 Rise Set
Actual Time
Civil Twilight
Nautical Twilight
Astronomical Twilight
Moon
Length of Visible Light
Length of Day
Tomorrow will be .
, % of the Moon is Illuminated

Today's Extremes

Country Highs Country Lows

Community

WunderPhotos

Upload Photos

1,809,302 photos uploaded!

WunderBlogs® & News

Nearby

Air Quality

  Air Quality AQ Index Pollutant
Not available.

Snow Depth

Station Depth Elevation

Earthquake Activity

City Distance Mag. Time & Date
Minimum magnitude displayed is 2.5.

Coastal Water Temperatures

Place Temperature

Stations

Nearby Weather Stations

Station Location Temp. Windchill Dew Point Humidity Wind Precip. Elev Updated Type